Cerro Gordo, Illinois
Current Conditions -  °F | °C
As of 7:54 PM on Sunday 25 Jan 2015 (Local Time) from KDEC Reporting Station
Overcast Overcast  
Wind Chill: 17°   Ceiling: 1200
Heat Index: 31°   Visibility: 10mi
Dew Point: 30°   Wind: 24mph
Humidity: 96%   Direction: 20°NNE
Pressure: 29.9"   Gusts: 31mph
Location:  39.89°N, 88.73°W
Report Text: KDEC 260154Z 02021G27KT 10SM OVC012 M01/M01 A2990 RMK AO2 PK WND 01027/0154 SLP132 T10061011
Loading
Personal Weather Stations






























Interactive Weather Map New forecast layout! Learn more

10-Day Weather Forecast

Advertisements
Track Severe Weather on mobile